AFR292 LFPG-RJBB
Flight info
| Callsign | AFR292 |
|---|---|
| Flight time | N/A |
| Altitude | 33000 |
| Route | LANVI DCT BEGAR DCT TRA DCT GAMSA DCT BIRGI DCT GRZ DCT NALOX/N0470F350 DCT INVED DCT LUGEB DCT UDROS UN743 GAKSU UT310 SIN UN644 KARDE UL851 TBN UR317 REBLO DCT MATAL T916 SUBUT/N0470F370 M747 LUSAL N199 RASAM L88 METKA B476 TIMGA A480 OTBOR/K0863F370 N147 ELAHA Z621 ARBOL M610 RULAD/K0859S1130 A343 POSOT/K0854S1190 B215 FKG W188 LIKMI W270 DKO W69 HUR B339 LADIX W34 VAPGU W100 ORAVA W201 UNSEK A326 ALARA/K0857S1250 A326 DONVO G597 AGAVO/N0463F410 Y644 EGOBA Y697 LANAT Y597 MIHOU Y361 SAEKI Y36 ATMUG |
| Aircraft | A343/H-SDE2E3FGHIJ4J5M1RWXY/LB1D1 |
Departure
| Time | 2026-05-09 07:49 |
|---|---|
| Airport | Charles de Gaulle International Airport (LFPG) |
Arrival
| Time | N/A |
|---|---|
| Airport | Kansai International Airport (RJBB) |
| Time | Latitude | Longitude | Altitude | Speed | Heading |
|---|---|---|---|---|---|
| 2026-05-09 06:54 | 49.01438 | 2.54603 | 367 ft | 0 kts | 270° |
| 2026-05-09 07:15 | 49.01438 | 2.54604 | 358 ft | 0 kts | 270° |
| 2026-05-09 07:26 | 49.01437 | 2.54634 | 361 ft | 4 kts | 270° |
| 2026-05-09 07:26 | 49.01437 | 2.54675 | 358 ft | 4 kts | 271° |
| 2026-05-09 07:27 | 49.01436 | 2.54715 | 360 ft | 4 kts | 289° |
| 2026-05-09 07:27 | 49.01422 | 2.54742 | 362 ft | 4 kts | 347° |
| 2026-05-09 07:27 | 49.01402 | 2.54744 | 358 ft | 0 kts | 4° |
| 2026-05-09 07:34 | 49.01414 | 2.54746 | 364 ft | 5 kts | 5° |
| 2026-05-09 07:34 | 49.01471 | 2.54747 | 366 ft | 11 kts | 355° |
| 2026-05-09 07:34 | 49.01548 | 2.54722 | 363 ft | 11 kts | 341° |
| 2026-05-09 07:35 | 49.01612 | 2.54682 | 358 ft | 9 kts | 334° |
| 2026-05-09 07:35 | 49.01664 | 2.54636 | 365 ft | 8 kts | 327° |
| 2026-05-09 07:35 | 49.01705 | 2.54588 | 367 ft | 7 kts | 317° |
| 2026-05-09 07:35 | 49.01718 | 2.54568 | 362 ft | 0 kts | 312° |
| 2026-05-09 07:37 | 49.01723 | 2.54559 | 367 ft | 4 kts | 311° |
| 2026-05-09 07:37 | 49.01746 | 2.54508 | 367 ft | 8 kts | 302° |
| 2026-05-09 07:37 | 49.01778 | 2.54413 | 364 ft | 12 kts | 295° |
| 2026-05-09 07:37 | 49.01795 | 2.54369 | 366 ft | 0 kts | 304° |
| 2026-05-09 07:38 | 49.01796 | 2.54368 | 365 ft | 0 kts | 304° |
| 2026-05-09 07:38 | 49.01802 | 2.54354 | 367 ft | 0 kts | 306° |
| 2026-05-09 07:42 | 49.01803 | 2.54353 | 367 ft | 2 kts | 307° |
| 2026-05-09 07:43 | 49.01807 | 2.54346 | 364 ft | 0 kts | 308° |
| 2026-05-09 07:43 | 49.01814 | 2.54339 | 358 ft | 5 kts | 324° |
| 2026-05-09 07:43 | 49.01877 | 2.54326 | 366 ft | 12 kts | 356° |
| 2026-05-09 07:44 | 49.01954 | 2.54311 | 365 ft | 10 kts | 342° |
| 2026-05-09 07:44 | 49.01988 | 2.54240 | 366 ft | 8 kts | 279° |
| 2026-05-09 07:44 | 49.01971 | 2.54171 | 367 ft | 7 kts | 229° |
| 2026-05-09 07:44 | 49.01932 | 2.54117 | 366 ft | 9 kts | 221° |
| 2026-05-09 07:45 | 49.01899 | 2.54032 | 362 ft | 10 kts | 256° |
| 2026-05-09 07:45 | 49.01888 | 2.53915 | 365 ft | 12 kts | 262° |
| 2026-05-09 07:45 | 49.01879 | 2.53783 | 358 ft | 13 kts | 266° |
| 2026-05-09 07:45 | 49.01873 | 2.53634 | 358 ft | 15 kts | 266° |
| 2026-05-09 07:46 | 49.01867 | 2.53470 | 365 ft | 16 kts | 267° |
| 2026-05-09 07:46 | 49.01861 | 2.53295 | 366 ft | 17 kts | 265° |
| 2026-05-09 07:46 | 49.01848 | 2.53114 | 366 ft | 18 kts | 263° |
| 2026-05-09 07:46 | 49.01836 | 2.52924 | 360 ft | 19 kts | 265° |
| 2026-05-09 07:47 | 49.01827 | 2.52718 | 365 ft | 20 kts | 267° |
| 2026-05-09 07:47 | 49.01819 | 2.52504 | 366 ft | 21 kts | 263° |
| 2026-05-09 07:47 | 49.01878 | 2.52360 | 360 ft | 17 kts | 349° |
| 2026-05-09 07:47 | 49.02000 | 2.52340 | 358 ft | 18 kts | 354° |
| 2026-05-09 07:48 | 49.02111 | 2.52390 | 364 ft | 17 kts | 57° |
| 2026-05-09 07:48 | 49.02130 | 2.52560 | 363 ft | 20 kts | 85° |
| 2026-05-09 07:48 | 49.02155 | 2.53011 | 364 ft | 67 kts | 85° |
| 2026-05-09 07:48 | 49.02207 | 2.53936 | 365 ft | 110 kts | 86° |
| 2026-05-09 07:49 | 49.02275 | 2.55306 | 362 ft | 146 kts | 85° |
| 2026-05-09 07:49 | 49.02366 | 2.57005 | 420 ft | 169 kts | 85° |
| 2026-05-09 07:49 | 49.02445 | 2.58729 | 997 ft | 157 kts | 86° |
| 2026-05-09 07:49 | 49.02493 | 2.60333 | 1455 ft | 155 kts | 85° |
| 2026-05-09 07:50 | 49.02589 | 2.62048 | 1640 ft | 168 kts | 86° |
| 2026-05-09 07:50 | 49.02633 | 2.63824 | 1704 ft | 168 kts | 93° |
| 2026-05-09 07:50 | 49.02645 | 2.65610 | 1738 ft | 170 kts | 90° |
| 2026-05-09 07:50 | 49.02759 | 2.67482 | 1886 ft | 185 kts | 81° |
| 2026-05-09 07:51 | 49.02934 | 2.69470 | 2213 ft | 192 kts | 82° |
| 2026-05-09 07:51 | 49.03083 | 2.71503 | 2675 ft | 195 kts | 84° |
| 2026-05-09 07:51 | 49.03221 | 2.73625 | 2923 ft | 210 kts | 85° |
| 2026-05-09 07:51 | 49.03344 | 2.75954 | 3104 ft | 230 kts | 86° |
| 2026-05-09 07:52 | 49.03468 | 2.78452 | 3423 ft | 247 kts | 86° |
| 2026-05-09 07:52 | 49.03597 | 2.81118 | 3912 ft | 256 kts | 86° |
| 2026-05-09 07:52 | 49.03730 | 2.83859 | 4494 ft | 262 kts | 86° |
| 2026-05-09 07:52 | 49.03861 | 2.86660 | 5022 ft | 268 kts | 87° |
| 2026-05-09 07:53 | 49.03979 | 2.89509 | 5414 ft | 272 kts | 88° |
| 2026-05-09 07:53 | 49.04053 | 2.92433 | 5965 ft | 277 kts | 94° |
| 2026-05-09 07:53 | 49.03753 | 2.95346 | 6589 ft | 279 kts | 104° |
| 2026-05-09 07:53 | 49.03276 | 2.98215 | 7071 ft | 280 kts | 107° |
| 2026-05-09 07:54 | 49.02772 | 3.01122 | 7516 ft | 286 kts | 105° |
| 2026-05-09 07:54 | 49.02293 | 3.04068 | 8104 ft | 288 kts | 105° |
| 2026-05-09 07:54 | 49.01806 | 3.07064 | 8660 ft | 292 kts | 105° |
| 2026-05-09 07:54 | 49.01313 | 3.10083 | 9192 ft | 295 kts | 105° |
| 2026-05-09 07:55 | 49.00809 | 3.13142 | 9707 ft | 299 kts | 105° |
| 2026-05-09 07:55 | 49.00298 | 3.16232 | 10196 ft | 304 kts | 105° |
| 2026-05-09 07:55 | 48.99770 | 3.19413 | 10449 ft | 317 kts | 105° |
| 2026-05-09 07:55 | 48.99218 | 3.22728 | 10643 ft | 330 kts | 105° |
| 2026-05-09 07:56 | 48.98650 | 3.26134 | 10862 ft | 342 kts | 105° |
| 2026-05-09 07:56 | 48.98044 | 3.29761 | 11076 ft | 355 kts | 105° |
| 2026-05-09 07:56 | 48.97425 | 3.33456 | 11280 ft | 367 kts | 105° |
| 2026-05-09 07:56 | 48.96794 | 3.37222 | 11571 ft | 376 kts | 105° |
| 2026-05-09 07:57 | 48.96133 | 3.41153 | 11967 ft | 381 kts | 105° |
| 2026-05-09 07:57 | 48.95471 | 3.45087 | 12395 ft | 386 kts | 105° |
| 2026-05-09 07:57 | 48.94812 | 3.48998 | 12858 ft | 389 kts | 105° |
| 2026-05-09 07:57 | 48.94141 | 3.52989 | 13339 ft | 391 kts | 104° |
| 2026-05-09 07:58 | 48.93689 | 3.57091 | 13794 ft | 395 kts | 97° |
| 2026-05-09 07:58 | 48.93450 | 3.61278 | 14280 ft | 398 kts | 95° |
| 2026-05-09 07:58 | 48.93238 | 3.65489 | 14731 ft | 401 kts | 95° |
| 2026-05-09 07:58 | 48.93021 | 3.69738 | 15188 ft | 404 kts | 95° |
| 2026-05-09 07:59 | 48.92798 | 3.74005 | 15636 ft | 406 kts | 96° |
| 2026-05-09 07:59 | 48.92646 | 3.76851 | 15921 ft | 408 kts | 96° |
| 2026-05-09 07:59 | 48.92415 | 3.81166 | 16377 ft | 411 kts | 96° |
| 2026-05-09 07:59 | 48.92180 | 3.85507 | 16775 ft | 414 kts | 96° |
| 2026-05-09 08:00 | 48.91941 | 3.89890 | 17195 ft | 416 kts | 96° |
| 2026-05-09 08:00 | 48.91699 | 3.94275 | 17613 ft | 419 kts | 96° |
| 2026-05-09 08:00 | 48.91453 | 3.98712 | 18007 ft | 421 kts | 96° |
| 2026-05-09 08:00 | 48.91204 | 4.03174 | 18411 ft | 424 kts | 96° |
| 2026-05-09 08:01 | 48.90951 | 4.07666 | 18778 ft | 428 kts | 96° |
| 2026-05-09 08:01 | 48.90695 | 4.12186 | 19185 ft | 430 kts | 96° |
| 2026-05-09 08:01 | 48.90434 | 4.16709 | 19577 ft | 432 kts | 96° |
| 2026-05-09 08:01 | 48.89968 | 4.21235 | 19935 ft | 434 kts | 104° |
| 2026-05-09 08:02 | 48.88986 | 4.25571 | 20281 ft | 436 kts | 116° |
| 2026-05-09 08:02 | 48.87590 | 4.29665 | 20631 ft | 437 kts | 120° |
| 2026-05-09 08:02 | 48.86106 | 4.33698 | 20996 ft | 440 kts | 120° |
| 2026-05-09 08:02 | 48.84605 | 4.37758 | 21326 ft | 442 kts | 120° |
| 2026-05-09 08:03 | 48.83095 | 4.41854 | 21638 ft | 446 kts | 120° |
| 2026-05-09 08:03 | 48.81577 | 4.45974 | 21947 ft | 449 kts | 120° |
| 2026-05-09 08:03 | 48.80051 | 4.50119 | 22273 ft | 451 kts | 120° |
| 2026-05-09 08:03 | 48.78518 | 4.54281 | 22573 ft | 453 kts | 120° |
| 2026-05-09 08:04 | 48.76974 | 4.58464 | 22874 ft | 456 kts | 120° |
| 2026-05-09 08:04 | 48.75419 | 4.62671 | 23184 ft | 458 kts | 119° |
| 2026-05-09 08:04 | 48.73876 | 4.66840 | 23454 ft | 461 kts | 119° |
| 2026-05-09 08:04 | 48.72298 | 4.71096 | 23742 ft | 463 kts | 119° |
| 2026-05-09 08:05 | 48.70721 | 4.75344 | 24016 ft | 465 kts | 119° |
| 2026-05-09 08:05 | 48.69125 | 4.79637 | 24262 ft | 468 kts | 119° |
| 2026-05-09 08:05 | 48.67524 | 4.83936 | 24544 ft | 470 kts | 119° |
| 2026-05-09 08:05 | 48.65914 | 4.88252 | 24812 ft | 472 kts | 119° |
| 2026-05-09 08:06 | 48.64290 | 4.92600 | 25025 ft | 475 kts | 119° |
| 2026-05-09 08:06 | 48.62660 | 4.96954 | 25271 ft | 477 kts | 119° |
| 2026-05-09 08:06 | 48.61021 | 5.01327 | 25520 ft | 479 kts | 119° |
| 2026-05-09 08:06 | 48.59374 | 5.05713 | 25751 ft | 481 kts | 119° |
| 2026-05-09 08:07 | 48.57713 | 5.10126 | 25955 ft | 484 kts | 119° |
| 2026-05-09 08:07 | 48.56047 | 5.14549 | 26193 ft | 486 kts | 119° |
| 2026-05-09 08:07 | 48.54371 | 5.18990 | 26397 ft | 488 kts | 119° |
| 2026-05-09 08:07 | 48.52684 | 5.23453 | 26618 ft | 490 kts | 119° |
| 2026-05-09 08:08 | 48.50988 | 5.27931 | 26806 ft | 493 kts | 119° |
| 2026-05-09 08:08 | 48.49288 | 5.32412 | 26984 ft | 495 kts | 119° |
| 2026-05-09 08:08 | 48.47563 | 5.36951 | 27186 ft | 497 kts | 119° |
| 2026-05-09 08:08 | 48.45839 | 5.41480 | 27394 ft | 499 kts | 120° |
| 2026-05-09 08:09 | 48.44108 | 5.46022 | 27555 ft | 502 kts | 120° |
| 2026-05-09 08:09 | 48.42364 | 5.50587 | 27726 ft | 504 kts | 120° |
| 2026-05-09 08:09 | 48.40611 | 5.55168 | 27923 ft | 506 kts | 120° |
| 2026-05-09 08:09 | 48.38848 | 5.59770 | 28081 ft | 508 kts | 120° |
| 2026-05-09 08:10 | 48.37075 | 5.64387 | 28255 ft | 509 kts | 120° |
| 2026-05-09 08:10 | 48.35323 | 5.68943 | 28450 ft | 511 kts | 120° |
| 2026-05-09 08:10 | 48.33536 | 5.73581 | 28594 ft | 513 kts | 120° |
| 2026-05-09 08:10 | 48.31788 | 5.78267 | 28747 ft | 515 kts | 116° |
| 2026-05-09 08:11 | 48.30389 | 5.83217 | 28998 ft | 513 kts | 109° |
| 2026-05-09 08:11 | 48.29201 | 5.88269 | 29189 ft | 513 kts | 107° |
| 2026-05-09 08:11 | 48.28090 | 5.93356 | 29434 ft | 513 kts | 106° |
| 2026-05-09 08:11 | 48.27013 | 5.98441 | 29694 ft | 512 kts | 106° |
| 2026-05-09 08:12 | 48.24849 | 6.08632 | 30090 ft | 512 kts | 106° |
| 2026-05-09 08:12 | 48.23750 | 6.13717 | 30297 ft | 512 kts | 107° |
| 2026-05-09 08:12 | 48.22640 | 6.18797 | 30511 ft | 511 kts | 107° |
| 2026-05-09 08:13 | 48.21539 | 6.23795 | 30702 ft | 512 kts | 107° |
| 2026-05-09 08:13 | 48.20417 | 6.28861 | 30862 ft | 512 kts | 107° |
| 2026-05-09 08:13 | 48.19277 | 6.33997 | 31076 ft | 512 kts | 107° |
| 2026-05-09 08:13 | 48.18165 | 6.38995 | 31274 ft | 512 kts | 107° |
| 2026-05-09 08:14 | 48.17035 | 6.44059 | 31460 ft | 511 kts | 107° |
| 2026-05-09 08:14 | 48.15906 | 6.49112 | 31600 ft | 512 kts | 107° |
| 2026-05-09 08:14 | 48.14773 | 6.54169 | 31758 ft | 512 kts | 107° |
| 2026-05-09 08:14 | 48.13638 | 6.59224 | 31926 ft | 512 kts | 108° |
| 2026-05-09 08:15 | 48.12505 | 6.64259 | 32100 ft | 512 kts | 108° |
| 2026-05-09 08:15 | 48.11365 | 6.69314 | 32221 ft | 513 kts | 108° |
| 2026-05-09 08:15 | 48.10224 | 6.74367 | 32351 ft | 513 kts | 108° |
| 2026-05-09 08:15 | 48.09076 | 6.79433 | 32495 ft | 513 kts | 108° |
| 2026-05-09 08:16 | 48.07929 | 6.84479 | 32637 ft | 513 kts | 108° |
| 2026-05-09 08:16 | 48.06777 | 6.89532 | 32740 ft | 514 kts | 108° |
| 2026-05-09 08:16 | 48.05620 | 6.94600 | 32853 ft | 515 kts | 108° |
| 2026-05-09 08:16 | 48.04461 | 6.99665 | 32955 ft | 516 kts | 108° |
| 2026-05-09 08:17 | 48.03296 | 7.04745 | 33065 ft | 517 kts | 108° |
| 2026-05-09 08:17 | 48.02131 | 7.09815 | 33098 ft | 514 kts | 109° |
| 2026-05-09 08:17 | 47.99823 | 7.19823 | 33102 ft | 507 kts | 109° |
| 2026-05-09 08:18 | 47.97526 | 7.29738 | 33101 ft | 509 kts | 110° |
| 2026-05-09 08:18 | 47.95192 | 7.39750 | 33101 ft | 512 kts | 110° |
| 2026-05-09 08:19 | 47.92845 | 7.49784 | 33102 ft | 514 kts | 110° |
| 2026-05-09 08:19 | 47.90479 | 7.59861 | 33101 ft | 515 kts | 110° |